KCBM/CBM METAR and TAF weather

Enter ICAO airport designator
Station Type Date Time Source
KCBM METAR 2020/07/11 19:56 UTC NOAA

KCBM 111956Z AUTO 00000KT 10SM CLR 33/20 A2997 RMK AO2 SLP149 T03250200 $


Station Type Date Time Source
KCBM Decoded METAR 2020/07/11 19:56 UTC NOAA

Columbus Air Force Base, MS, United States (KCBM) 33-39N 088-27W
Jul 11, 2020 - 03:56 PM EDT / 2020.07.11 1956 UTC
Wind: Calm:0
Visibility: 10 mile(s):0
Sky conditions: clear
Temperature: 90.5 F (32.5 C)
Heat index: 94.1 F (34.5 C):1
Dew Point: 68.0 F (20.0 C)
Relative Humidity: 47%
Pressure (altimeter): 29.97 in. Hg (1014 hPa)
ob: KCBM 111956Z AUTO 00000KT 10SM CLR 33/20 A2997 RMK AO2 SLP149 T03250200
cycle: 20

Station Type Date Time Source
KCBM TAF 2020/07/10 23:58 UTC NOAA

TAF
AMD KCBM 102355Z 1023/1123 33009KT 9999 SKC QNH2987INS
BECMG 1101/1102 VRB06KT 9999 SKC QNH2985INS TX32/1023Z TN20/1111Z LAST NO
AMDS AFT 1023 NEXT 1215

Example: see airport list